Time;durP1;ratioP1;P1;durP2;ratioP2;P2;SDS_P1;SDS_P2;PMS_P1;PMS_P2;Temp;Humidity;BMP_temperature;BMP_pressure;BME280_temperature;BME280_humidity;BME280_pressure;Samples;Min_cycle;Max_cycle;Signal;HPM_P1;HPM_P2
2021/12/10 00:00:46;;;;;;;48.42;29.63;;;4.30;99.90;;;;;;5054877;28;20036;-74
2021/12/10 00:03:17;;;;;;;45.45;27.27;;;4.30;99.90;;;;;;5057284;28;20541;-74
2021/12/10 00:05:51;;;;;;;52.22;27.85;;;4.30;99.90;;;;;;5057452;28;20400;-74
2021/12/10 00:08:17;;;;;;;50.33;28.10;;;4.30;99.90;;;;;;5057346;28;20036;-74
2021/12/10 00:10:46;;;;;;;45.65;26.38;;;4.30;99.90;;;;;;5033873;28;20044;-74
2021/12/10 00:13:12;;;;;;;41.88;27.40;;;4.30;99.90;;;;;;5025297;28;20399;-74
2021/12/10 00:15:40;;;;;;;41.58;25.33;;;4.30;99.90;;;;;;5057013;28;20813;-74
2021/12/10 00:18:09;;;;;;;46.08;26.23;;;4.30;99.90;;;;;;5057353;28;20496;-75
2021/12/10 00:20:36;;;;;;;42.75;25.08;;;4.20;99.90;;;;;;5051525;28;20041;-75
2021/12/10 00:23:16;;;;;;;44.92;27.05;;;4.20;99.90;;;;;;5048711;28;20059;-74
2021/12/10 00:25:48;;;;;;;40.78;24.58;;;4.20;99.90;;;;;;5020785;28;20400;-75
2021/12/10 00:28:24;;;;;;;39.58;23.73;;;4.20;99.90;;;;;;5032294;28;20041;-74
2021/12/10 00:31:14;;;;;;;42.97;23.35;;;4.20;99.90;;;;;;5056375;28;20097;-74
2021/12/10 00:33:53;;;;;;;34.30;22.30;;;4.10;99.90;;;;;;5051214;28;20416;-75
2021/12/10 00:36:19;;;;;;;37.95;21.83;;;4.00;99.90;;;;;;5020386;28;20036;-74
2021/12/10 00:38:45;;;;;;;38.03;22.25;;;4.00;99.90;;;;;;5020457;28;20059;-74
2021/12/10 00:41:11;;;;;;;35.38;22.30;;;4.00;99.90;;;;;;5075915;28;20039;-74
2021/12/10 00:43:38;;;;;;;31.75;22.00;;;3.90;99.90;;;;;;5056478;28;20460;-74
2021/12/10 00:46:04;;;;;;;34.03;23.23;;;3.90;99.90;;;;;;5056637;28;20048;-75
2021/12/10 00:48:30;;;;;;;38.95;21.45;;;3.90;99.90;;;;;;5020821;28;20040;-74
2021/12/10 00:50:58;;;;;;;34.55;20.23;;;3.90;99.90;;;;;;5036513;28;20110;-74
2021/12/10 00:53:24;;;;;;;28.60;19.67;;;4.00;99.90;;;;;;5038431;28;20040;-74
2021/12/10 00:55:49;;;;;;;35.88;21.05;;;4.00;99.90;;;;;;5036563;28;20041;-74
2021/12/10 00:58:16;;;;;;;37.67;21.00;;;4.00;99.90;;;;;;5066897;28;20451;-75
2021/12/10 01:00:47;;;;;;;34.50;19.33;;;4.00;99.90;;;;;;5056354;28;20048;-74
2021/12/10 01:03:15;;;;;;;34.90;19.60;;;4.00;99.90;;;;;;5039270;28;20043;-75
2021/12/10 01:05:44;;;;;;;32.22;18.90;;;4.00;99.90;;;;;;5039643;28;20056;-75
2021/12/10 01:08:10;;;;;;;32.10;18.45;;;4.00;99.90;;;;;;5041048;28;20090;-75
2021/12/10 01:10:42;;;;;;;26.77;18.88;;;4.00;99.90;;;;;;5036013;28;20069;-75
2021/12/10 01:13:12;;;;;;;30.50;18.45;;;4.00;99.90;;;;;;5052211;28;20036;-75
2021/12/10 01:23:59;;;;;;;32.55;19.88;;;4.00;99.90;;;;;;5052088;28;20060;-74
2021/12/10 01:29:12;;;;;;;30.17;18.67;;;4.10;99.90;;;;;;5055791;28;20063;-74
2021/12/10 01:31:38;;;;;;;30.95;18.98;;;4.10;99.90;;;;;;5039046;28;20037;-74
2021/12/10 01:34:05;;;;;;;31.90;19.58;;;4.10;99.90;;;;;;5038694;28;20075;-74
2021/12/10 01:36:31;;;;;;;32.88;18.02;;;4.10;99.90;;;;;;5055346;28;20100;-75
2021/12/10 01:38:57;;;;;;;34.70;19.50;;;4.10;99.90;;;;;;5055454;28;20037;-74
2021/12/10 01:41:28;;;;;;;33.17;19.90;;;4.10;99.90;;;;;;5055700;28;20055;-74
2021/12/10 01:44:04;;;;;;;30.98;18.75;;;4.10;99.90;;;;;;5051827;28;20393;-75
2021/12/10 01:46:31;;;;;;;30.77;20.00;;;4.10;99.90;;;;;;5050895;28;20043;-76
2021/12/10 01:49:02;;;;;;;30.65;19.33;;;4.10;99.90;;;;;;5055403;28;20074;-75
2021/12/10 01:51:32;;;;;;;33.60;19.55;;;4.10;99.90;;;;;;5055390;28;20133;-75
2021/12/10 01:54:02;;;;;;;30.50;18.85;;;4.10;99.90;;;;;;5055307;28;20041;-75
2021/12/10 01:56:31;;;;;;;30.38;19.05;;;4.10;99.90;;;;;;5023361;28;20115;-74
2021/12/10 01:58:58;;;;;;;31.90;19.83;;;4.10;99.90;;;;;;5036720;28;20120;-74
2021/12/10 02:01:41;;;;;;;29.55;20.98;;;4.10;99.90;;;;;;5055459;28;20106;-74
2021/12/10 02:04:14;;;;;;;29.95;19.60;;;4.10;99.90;;;;;;5054983;28;20492;-74
2021/12/10 02:06:40;;;;;;;;;;;4.10;99.90;;;;;;5054121;28;20121;-74
2021/12/10 02:09:07;;;;;;;27.42;18.80;;;4.10;99.90;;;;;;5037262;28;20366;-74
2021/12/10 02:11:33;;;;;;;29.02;19.85;;;4.10;99.90;;;;;;5038336;28;20033;-75
2021/12/10 02:13:59;;;;;;;27.10;19.88;;;4.10;99.90;;;;;;5071017;28;20404;-75
2021/12/10 02:16:24;;;;;;;31.42;20.55;;;4.10;99.90;;;;;;5040489;28;20033;-75
2021/12/10 02:18:50;;;;;;;31.38;20.08;;;4.10;99.90;;;;;;5035068;28;20554;-74
2021/12/10 02:21:21;;;;;;;28.00;18.08;;;4.10;99.90;;;;;;5052035;28;20037;-75
2021/12/10 02:23:57;;;;;;;24.42;17.75;;;4.10;99.90;;;;;;5038764;28;20024;-74
2021/12/10 02:26:48;;;;;;;23.50;16.02;;;4.00;99.90;;;;;;5054852;28;20032;-74
2021/12/10 02:29:15;;;;;;;23.90;16.30;;;4.00;99.90;;;;;;5054655;28;20071;-74
2021/12/10 02:31:41;;;;;;;26.23;16.38;;;4.00;99.90;;;;;;5054720;28;20401;-75
2021/12/10 02:34:08;;;;;;;25.58;16.77;;;4.00;99.90;;;;;;5034318;28;20035;-75
2021/12/10 02:36:41;;;;;;;23.17;16.10;;;4.00;99.90;;;;;;5054484;28;20483;-74
2021/12/10 02:39:07;;;;;;;22.13;15.10;;;4.00;99.90;;;;;;5037706;28;20090;-75
2021/12/10 02:41:34;;;;;;;24.55;16.17;;;4.00;99.90;;;;;;5037856;28;20115;-75
2021/12/10 02:44:01;;;;;;;28.35;16.58;;;4.00;99.90;;;;;;5050881;28;20029;-74
2021/12/10 02:46:28;;;;;;;22.95;15.82;;;4.00;99.90;;;;;;5037837;28;20078;-74
2021/12/10 02:48:54;;;;;;;23.80;15.13;;;4.00;99.90;;;;;;5054400;28;20126;-74
2021/12/10 02:51:21;;;;;;;26.73;15.90;;;4.00;99.90;;;;;;5050612;28;20040;-74
2021/12/10 02:53:46;;;;;;;24.75;14.32;;;4.00;99.90;;;;;;5037174;28;20037;-74
2021/12/10 02:56:19;;;;;;;25.33;15.30;;;3.90;99.90;;;;;;5054217;28;20048;-74
2021/12/10 02:58:47;;;;;;;23.10;14.85;;;3.90;99.90;;;;;;5054445;28;20159;-74
2021/12/10 03:01:23;;;;;;;23.15;15.18;;;3.90;99.90;;;;;;5054190;28;20024;-74
2021/12/10 03:03:48;;;;;;;21.40;14.82;;;3.90;99.90;;;;;;5050926;28;20037;-74
2021/12/10 03:06:18;;;;;;;22.58;14.57;;;3.90;99.90;;;;;;5070488;28;20037;-74
2021/12/10 03:08:48;;;;;;;24.65;14.77;;;3.80;99.90;;;;;;5054248;28;20405;-75
2021/12/10 03:11:19;;;;;;;20.50;14.32;;;3.80;99.90;;;;;;5037591;28;20048;-75
2021/12/10 03:13:45;;;;;;;22.90;15.45;;;3.80;99.90;;;;;;5039872;28;20078;-74
2021/12/10 03:16:11;;;;;;;24.88;15.90;;;3.80;99.90;;;;;;5053685;28;20455;-74
2021/12/10 03:18:37;;;;;;;25.23;15.45;;;3.80;99.90;;;;;;5053964;28;20615;-75
2021/12/10 03:21:09;;;;;;;23.90;15.43;;;3.80;99.90;;;;;;5053778;28;20059;-74
2021/12/10 03:23:37;;;;;;;24.23;15.23;;;3.70;99.90;;;;;;5051072;28;20555;-73
2021/12/10 03:26:03;;;;;;;20.83;15.00;;;3.60;99.90;;;;;;5050170;28;20044;-74
2021/12/10 03:28:29;;;;;;;20.75;13.43;;;3.50;99.90;;;;;;5033791;28;20041;-74
2021/12/10 03:30:55;;;;;;;18.58;13.45;;;3.50;99.90;;;;;;5039090;28;20036;-74
2021/12/10 03:33:20;;;;;;;21.63;14.38;;;3.40;99.90;;;;;;5053248;28;20489;-74
2021/12/10 03:35:49;;;;;;;23.48;14.80;;;3.30;99.90;;;;;;5052696;28;20392;-76
2021/12/10 03:38:22;;;;;;;21.38;14.77;;;3.30;99.90;;;;;;5053697;28;20040;-74
2021/12/10 03:40:48;;;;;;;19.48;13.75;;;3.20;99.90;;;;;;5053870;28;20037;-74
2021/12/10 03:43:14;;;;;;;21.98;13.70;;;3.10;99.90;;;;;;5053257;28;20040;-74
2021/12/10 03:45:46;;;;;;;21.98;14.07;;;3.10;99.90;;;;;;5052873;28;20033;-74
2021/12/10 03:48:15;;;;;;;21.85;14.57;;;3.00;99.90;;;;;;5053737;28;20040;-74
2021/12/10 03:50:44;;;;;;;19.42;13.80;;;2.90;99.90;;;;;;5053403;28;20036;-74
2021/12/10 03:53:10;;;;;;;20.27;13.68;;;2.90;99.90;;;;;;5049845;28;20060;-74
2021/12/10 03:55:36;;;;;;;22.80;14.27;;;2.80;99.90;;;;;;5045819;28;20133;-73
2021/12/10 03:58:03;;;;;;;21.27;14.55;;;2.70;99.90;;;;;;5033267;28;20486;-74
2021/12/10 04:00:33;;;;;;;20.25;13.55;;;2.70;99.90;;;;;;5033454;28;20155;-75
2021/12/10 04:03:00;;;;;;;24.30;14.18;;;2.60;99.90;;;;;;5031710;28;20041;-74
2021/12/10 04:05:26;;;;;;;20.85;14.30;;;2.60;99.90;;;;;;5051087;28;20040;-75
2021/12/10 04:07:51;;;;;;;22.90;14.82;;;2.60;99.90;;;;;;5036742;28;20174;-75
2021/12/10 04:10:18;;;;;;;20.15;14.65;;;2.60;99.90;;;;;;5036475;28;20087;-74
2021/12/10 04:12:44;;;;;;;27.20;15.25;;;2.50;99.90;;;;;;5053065;28;20048;-74
2021/12/10 04:15:11;;;;;;;23.15;14.88;;;2.50;99.90;;;;;;5032976;28;20048;-75
2021/12/10 04:17:38;;;;;;;26.23;16.83;;;2.40;99.90;;;;;;5023851;28;20497;-75
2021/12/10 04:20:07;;;;;;;22.38;15.55;;;2.40;99.90;;;;;;5033306;28;20045;-75
2021/12/10 04:22:33;;;;;;;27.02;15.90;;;2.40;99.90;;;;;;5016468;28;20045;-75
2021/12/10 04:25:01;;;;;;;25.17;16.10;;;2.30;99.90;;;;;;5017162;28;20075;-73
2021/12/10 04:27:27;;;;;;;27.75;16.92;;;2.30;99.90;;;;;;5050290;28;20513;-74
2021/12/10 04:29:56;;;;;;;26.40;17.05;;;2.20;99.90;;;;;;5053141;28;20190;-75
2021/12/10 04:32:23;;;;;;;28.42;17.25;;;2.10;99.90;;;;;;5036312;28;20045;-75
2021/12/10 04:34:49;;;;;;;27.42;18.10;;;2.10;99.90;;;;;;5052503;28;20496;-74
2021/12/10 04:37:16;;;;;;;33.85;19.55;;;2.10;99.90;;;;;;5038970;28;20029;-74
2021/12/10 04:39:46;;;;;;;29.02;18.65;;;2.00;99.90;;;;;;5049402;28;20041;-73
2021/12/10 04:42:13;;;;;;;34.22;19.27;;;2.00;99.90;;;;;;5033084;28;20076;-74
2021/12/10 04:44:39;;;;;;;29.52;20.10;;;1.90;99.90;;;;;;5039433;28;20051;-74
2021/12/10 04:47:05;;;;;;;33.00;19.95;;;1.90;99.90;;;;;;5052027;28;20427;-74
2021/12/10 04:49:30;;;;;;;37.08;20.98;;;1.90;99.90;;;;;;5056490;28;20097;-74
2021/12/10 04:51:57;;;;;;;37.13;21.08;;;1.80;99.90;;;;;;5056344;28;20054;-76
2021/12/10 04:54:24;;;;;;;32.17;20.13;;;1.90;99.90;;;;;;5052717;28;20559;-74
2021/12/10 04:56:52;;;;;;;33.58;20.90;;;1.80;99.90;;;;;;5064546;28;20040;-74
2021/12/10 04:59:20;;;;;;;32.90;20.33;;;1.80;99.90;;;;;;5056223;28;20044;-75
2021/12/10 05:01:47;;;;;;;38.67;21.98;;;1.80;99.90;;;;;;5056420;28;20067;-75
2021/12/10 05:04:14;;;;;;;31.60;20.70;;;1.80;99.90;;;;;;5044785;28;20032;-73
2021/12/10 05:06:40;;;;;;;34.83;20.25;;;1.70;99.90;;;;;;5039678;28;20055;-74
2021/12/10 05:09:09;;;;;;;33.03;21.70;;;1.70;99.90;;;;;;5055988;28;20170;-74
2021/12/10 05:11:35;;;;;;;38.15;21.98;;;1.70;99.90;;;;;;5056095;28;20059;-74
2021/12/10 05:14:01;;;;;;;33.20;22.77;;;1.70;99.90;;;;;;5054507;28;20481;-74
2021/12/10 05:16:27;;;;;;;34.58;21.20;;;1.70;99.90;;;;;;5039361;28;20064;-74
2021/12/10 05:18:58;;;;;;;35.03;21.75;;;1.70;99.90;;;;;;5039438;28;20043;-75
2021/12/10 05:21:26;;;;;;;34.50;21.73;;;1.70;99.90;;;;;;5056017;28;20063;-74
2021/12/10 05:23:52;;;;;;;36.05;21.00;;;1.70;99.90;;;;;;5043639;28;20036;-74
2021/12/10 05:26:18;;;;;;;34.10;21.60;;;1.70;99.90;;;;;;5039277;28;20085;-75
2021/12/10 05:28:44;;;;;;;39.08;21.88;;;1.70;99.90;;;;;;5055531;28;20500;-75
2021/12/10 05:31:09;;;;;;;36.03;21.80;;;1.60;99.90;;;;;;5050726;28;20049;-74
2021/12/10 05:33:35;;;;;;;31.88;21.52;;;1.60;99.90;;;;;;5051383;28;20047;-74
2021/12/10 05:36:02;;;;;;;40.20;21.40;;;1.60;99.90;;;;;;5055811;28;20041;-73
2021/12/10 05:38:31;;;;;;;34.03;20.52;;;1.50;99.90;;;;;;5053886;28;20036;-76
2021/12/10 05:40:57;;;;;;;34.00;20.88;;;1.50;99.90;;;;;;5055876;28;20046;-74
2021/12/10 05:43:23;;;;;;;36.92;21.95;;;1.50;99.90;;;;;;5055406;28;20044;-73
2021/12/10 05:45:50;;;;;;;32.83;20.48;;;1.50;99.90;;;;;;5052212;28;20455;-74
2021/12/10 05:48:17;;;;;;;32.42;20.55;;;1.40;99.90;;;;;;5041825;28;20037;-73
2021/12/10 05:50:43;;;;;;;28.90;19.52;;;1.40;99.90;;;;;;5039111;28;20127;-74
2021/12/10 05:53:09;;;;;;;30.58;20.38;;;1.40;99.90;;;;;;5055081;28;20523;-74
2021/12/10 05:55:37;;;;;;;30.73;19.45;;;1.40;99.90;;;;;;5054981;28;20037;-73
2021/12/10 05:58:03;;;;;;;32.28;19.60;;;1.40;99.90;;;;;;5036016;28;20037;-74
2021/12/10 06:00:32;;;;;;;36.45;21.70;;;1.30;99.90;;;;;;5054979;28;20488;-74
2021/12/10 06:02:59;;;;;;;30.50;19.33;;;1.30;99.90;;;;;;5038403;28;20040;-74
2021/12/10 06:05:26;;;;;;;32.97;20.92;;;1.30;99.90;;;;;;5054952;28;20040;-74
2021/12/10 06:07:52;;;;;;;30.83;20.20;;;1.30;99.90;;;;;;5050503;28;20553;-75
2021/12/10 06:10:20;;;;;;;34.75;20.48;;;1.20;99.90;;;;;;5035461;28;20140;-73
2021/12/10 06:12:47;;;;;;;33.22;21.52;;;1.20;99.90;;;;;;5018413;28;20045;-75
2021/12/10 06:15:14;;;;;;;30.20;19.92;;;1.20;99.90;;;;;;5043161;28;20101;-75
2021/12/10 06:17:40;;;;;;;30.27;18.67;;;1.20;99.90;;;;;;5053819;28;20555;-74
2021/12/10 06:20:09;;;;;;;28.08;19.38;;;1.10;99.90;;;;;;5037401;28;20061;-73
2021/12/10 06:22:34;;;;;;;30.25;18.85;;;1.10;99.90;;;;;;5018441;28;20420;-74
2021/12/10 06:25:00;;;;;;;29.80;19.15;;;1.10;99.90;;;;;;5044426;28;20032;-73
2021/12/10 06:27:26;;;;;;;31.95;19.20;;;1.20;99.90;;;;;;5071218;28;20048;-74
2021/12/10 06:29:52;;;;;;;29.40;18.83;;;1.20;99.90;;;;;;5054268;28;20036;-74
2021/12/10 06:32:17;;;;;;;30.85;18.13;;;1.20;99.90;;;;;;5054475;28;20041;-75
2021/12/10 06:34:43;;;;;;;30.42;18.17;;;1.20;99.90;;;;;;5054209;28;20532;-75
2021/12/10 06:37:08;;;;;;;26.48;17.40;;;1.20;99.90;;;;;;5054618;28;20042;-74
2021/12/10 06:39:34;;;;;;;26.42;17.60;;;1.10;99.90;;;;;;5050285;28;20040;-74
2021/12/10 06:42:00;;;;;;;30.90;18.02;;;1.10;99.90;;;;;;5044520;28;20068;-73
2021/12/10 06:44:26;;;;;;;27.33;17.80;;;1.10;99.90;;;;;;5051090;28;20554;-73
2021/12/10 06:46:52;;;;;;;28.90;16.75;;;1.10;99.90;;;;;;5051017;28;20074;-73
2021/12/10 06:49:18;;;;;;;26.27;17.15;;;1.00;99.90;;;;;;5052204;28;20470;-74
2021/12/10 06:51:45;;;;;;;29.13;17.48;;;1.00;99.90;;;;;;5053527;28;20052;-74
2021/12/10 06:54:11;;;;;;;25.13;15.80;;;1.00;99.90;;;;;;5037399;28;20094;-73
2021/12/10 06:56:37;;;;;;;28.10;16.67;;;1.00;99.90;;;;;;5053869;28;20048;-73
2021/12/10 06:59:08;;;;;;;27.00;17.00;;;1.00;99.90;;;;;;5053619;28;20037;-74
2021/12/10 07:01:38;;;;;;;23.15;15.27;;;0.90;99.90;;;;;;5054289;28;20434;-74
2021/12/10 07:04:09;;;;;;;26.52;14.48;;;1.00;99.90;;;;;;5045089;28;20465;-76
2021/12/10 07:06:36;;;;;;;24.63;16.20;;;0.90;99.90;;;;;;5050445;28;20123;-74
2021/12/10 07:09:05;;;;;;;24.85;14.35;;;0.90;99.90;;;;;;5050655;28;20045;-74
2021/12/10 07:11:30;;;;;;;26.98;15.82;;;0.90;99.90;;;;;;5033929;28;20520;-74
2021/12/10 07:13:57;;;;;;;25.42;14.02;;;0.90;99.90;;;;;;5058983;28;20162;-74
2021/12/10 07:16:25;;;;;;;21.77;14.13;;;0.90;99.90;;;;;;5043036;28;20039;-73
2021/12/10 07:18:53;;;;;;;27.58;15.10;;;0.90;99.90;;;;;;5053779;28;20033;-77
2021/12/10 07:21:19;;;;;;;26.83;14.38;;;1.00;99.90;;;;;;5037084;28;20178;-79
2021/12/10 07:23:45;;;;;;;23.05;15.48;;;0.90;99.90;;;;;;5053156;28;20097;-79
2021/12/10 07:26:12;;;;;;;24.67;15.18;;;0.90;99.90;;;;;;5034202;28;20040;-77
2021/12/10 07:28:38;;;;;;;22.98;14.23;;;1.00;99.90;;;;;;5048459;28;20492;-78
2021/12/10 07:31:05;;;;;;;21.38;12.75;;;1.00;99.90;;;;;;5050553;28;20051;-79
2021/12/10 07:33:31;;;;;;;22.40;13.48;;;1.00;99.90;;;;;;5036937;28;20040;-77
2021/12/10 07:35:57;;;;;;;19.92;12.48;;;1.00;99.90;;;;;;5070350;28;20538;-77
2021/12/10 07:38:23;;;;;;;22.88;12.68;;;1.00;99.90;;;;;;5052630;28;20489;-77
2021/12/10 07:40:50;;;;;;;20.85;13.32;;;0.90;99.90;;;;;;5037064;28;20485;-77
2021/12/10 07:43:16;;;;;;;20.08;12.85;;;0.90;99.90;;;;;;5033153;28;20043;-74
2021/12/10 07:45:46;;;;;;;18.77;12.68;;;0.90;99.90;;;;;;5050696;28;20032;-75
2021/12/10 07:48:15;;;;;;;21.83;12.40;;;0.90;99.90;;;;;;5026918;28;20412;-75
2021/12/10 07:50:44;;;;;;;20.40;12.25;;;1.00;99.90;;;;;;5036609;28;20043;-76
2021/12/10 07:53:10;;;;;;;16.17;11.02;;;1.00;99.90;;;;;;5049059;28;20128;-76
2021/12/10 07:55:38;;;;;;;19.83;11.95;;;1.00;99.90;;;;;;5044029;28;20467;-76
2021/12/10 07:58:06;;;;;;;18.73;11.27;;;1.10;99.90;;;;;;5091119;22;20114;-74
2021/12/10 08:00:34;;;;;;;17.60;10.68;;;1.10;99.90;;;;;;5065789;28;20047;-74
2021/12/10 08:03:00;;;;;;;15.93;9.90;;;1.20;99.90;;;;;;5053548;28;20037;-74
2021/12/10 08:05:27;;;;;;;15.65;10.73;;;1.20;99.90;;;;;;5053501;28;20041;-74
2021/12/10 08:07:54;;;;;;;16.60;10.57;;;1.30;99.90;;;;;;5047255;28;20044;-74
2021/12/10 08:10:20;;;;;;;18.98;10.57;;;1.30;99.90;;;;;;5056529;28;20051;-74
2021/12/10 08:12:46;;;;;;;17.88;10.38;;;1.30;99.90;;;;;;5073148;28;20036;-74
2021/12/10 08:15:12;;;;;;;16.55;10.50;;;1.30;99.90;;;;;;5037287;28;20044;-75
2021/12/10 08:17:38;;;;;;;16.75;10.18;;;1.30;99.90;;;;;;5045923;28;20087;-74
2021/12/10 08:20:07;;;;;;;17.17;9.70;;;1.30;99.90;;;;;;5042083;28;20044;-74
2021/12/10 08:22:33;;;;;;;16.65;9.45;;;1.30;99.90;;;;;;5025863;28;20118;-74
2021/12/10 08:24:58;;;;;;;16.85;9.88;;;1.30;99.90;;;;;;5041286;28;20568;-74
2021/12/10 08:27:24;;;;;;;15.27;10.07;;;1.40;99.90;;;;;;5032332;28;20408;-76
2021/12/10 08:29:49;;;;;;;18.73;10.50;;;1.40;99.90;;;;;;5037205;28;20072;-75
2021/12/10 08:32:19;;;;;;;18.27;10.70;;;1.40;99.90;;;;;;5037031;28;20036;-74
2021/12/10 08:34:46;;;;;;;17.73;10.40;;;1.40;99.90;;;;;;5020457;28;20122;-74
2021/12/10 08:37:11;;;;;;;19.13;10.77;;;1.40;99.90;;;;;;5056734;28;20607;-74
2021/12/10 08:39:38;;;;;;;15.55;9.88;;;1.40;99.90;;;;;;5057849;28;20124;-74
2021/12/10 08:42:04;;;;;;;14.85;10.90;;;1.40;99.90;;;;;;5036008;28;20051;-74
2021/12/10 08:44:30;;;;;;;19.38;11.35;;;1.40;99.90;;;;;;5053309;28;20407;-74
2021/12/10 08:46:56;;;;;;;20.83;10.93;;;1.40;99.90;;;;;;5036755;28;20232;-74
2021/12/10 08:49:22;;;;;;;18.20;11.07;;;1.40;99.90;;;;;;5062418;28;20102;-74
2021/12/10 08:51:52;;;;;;;18.95;11.32;;;1.50;99.90;;;;;;5048649;28;20059;-74
2021/12/10 08:54:22;;;;;;;19.48;11.48;;;1.40;99.90;;;;;;5038138;28;20479;-74
2021/12/10 08:56:50;;;;;;;17.40;10.68;;;1.50;99.90;;;;;;5056052;28;20119;-73
2021/12/10 08:59:15;;;;;;;18.67;10.63;;;1.50;99.90;;;;;;5061122;28;20075;-73
2021/12/10 09:01:47;;;;;;;19.70;11.20;;;1.60;99.90;;;;;;5076791;28;20481;-74
2021/12/10 09:04:14;;;;;;;18.10;11.43;;;1.60;99.90;;;;;;5059644;28;20109;-73
2021/12/10 09:06:48;;;;;;;17.85;11.15;;;1.60;99.90;;;;;;5060449;28;20037;-73
2021/12/10 09:09:15;;;;;;;16.83;9.48;;;1.60;99.90;;;;;;5051369;28;20039;-73
2021/12/10 09:11:44;;;;;;;17.92;11.18;;;1.60;99.90;;;;;;5059559;28;20492;-73
2021/12/10 09:14:11;;;;;;;14.93;10.15;;;1.70;99.90;;;;;;5076066;28;20077;-73
2021/12/10 09:16:38;;;;;;;17.00;11.35;;;1.70;99.90;;;;;;5060999;28;20033;-73
2021/12/10 09:19:07;;;;;;;19.63;10.85;;;1.70;99.90;;;;;;5019654;28;20124;-73
2021/12/10 09:21:34;;;;;;;16.73;10.82;;;1.70;99.90;;;;;;5036459;28;20041;-73
2021/12/10 09:24:04;;;;;;;16.42;10.70;;;1.70;99.90;;;;;;5050661;28;20047;-73
2021/12/10 09:26:32;;;;;;;16.00;10.82;;;1.70;99.90;;;;;;5059453;28;20039;-73
2021/12/10 09:28:59;;;;;;;17.98;9.80;;;1.80;99.90;;;;;;5059242;28;20032;-73
2021/12/10 09:31:25;;;;;;;15.57;10.35;;;1.80;99.90;;;;;;5046717;28;20123;-73
2021/12/10 09:33:57;;;;;;;14.40;10.02;;;1.90;99.90;;;;;;5055501;28;20128;-73
2021/12/10 09:36:24;;;;;;;18.17;10.98;;;1.90;99.90;;;;;;5039016;28;20045;-73
2021/12/10 09:38:50;;;;;;;18.98;10.50;;;2.00;99.90;;;;;;5055706;28;20036;-74
2021/12/10 09:41:17;;;;;;;16.00;10.27;;;2.10;99.90;;;;;;5066597;28;20031;-74
2021/12/10 09:43:43;;;;;;;12.75;8.85;;;2.30;99.90;;;;;;5075514;28;20036;-73
2021/12/10 09:46:10;;;;;;;13.88;9.02;;;2.40;99.90;;;;;;5076104;28;20507;-73
2021/12/10 09:48:37;;;;;;;17.40;10.38;;;2.50;99.90;;;;;;5075602;28;20048;-73
2021/12/10 09:51:05;;;;;;;13.48;9.48;;;2.60;99.90;;;;;;5062888;28;20500;-73
2021/12/10 09:53:32;;;;;;;14.23;9.00;;;2.70;99.90;;;;;;5018878;28;20058;-73
2021/12/10 09:55:59;;;;;;;13.85;8.73;;;2.70;99.90;;;;;;5019040;28;20056;-73
2021/12/10 09:58:25;;;;;;;13.82;8.35;;;2.80;99.90;;;;;;5037743;28;20037;-74
2021/12/10 10:01:30;;;;;;;15.55;9.05;;;2.90;99.90;;;;;;5049319;28;20066;-73
2021/12/10 10:04:01;;;;;;;11.88;8.38;;;2.90;99.90;;;;;;5031487;28;20041;-75
2021/12/10 10:06:36;;;;;;;12.85;8.40;;;2.90;99.90;;;;;;5037545;28;20045;-74
2021/12/10 10:09:06;;;;;;;12.98;7.40;;;2.90;99.90;;;;;;5055102;28;20036;-74
2021/12/10 10:11:34;;;;;;;16.33;9.10;;;3.00;99.90;;;;;;5033002;28;20036;-73
2021/12/10 10:14:00;;;;;;;13.32;8.30;;;3.10;99.90;;;;;;5050855;28;20427;-75
2021/12/10 10:16:28;;;;;;;12.40;7.80;;;3.10;99.90;;;;;;5036886;28;20032;-74
2021/12/10 10:18:57;;;;;;;13.85;7.70;;;3.10;99.90;;;;;;5060750;28;20032;-73
2021/12/10 10:21:30;;;;;;;10.60;7.95;;;3.20;99.90;;;;;;5047325;28;20043;-74
2021/12/10 10:23:56;;;;;;;12.77;7.25;;;3.30;99.90;;;;;;5045142;28;20040;-74
2021/12/10 10:26:31;;;;;;;9.80;7.50;;;3.30;99.90;;;;;;5039911;28;20043;-74
2021/12/10 10:28:59;;;;;;;12.27;7.47;;;3.40;99.90;;;;;;5027048;28;20103;-74
2021/12/10 10:31:25;;;;;;;11.93;6.60;;;3.50;99.90;;;;;;5041420;28;20416;-74
2021/12/10 10:33:54;;;;;;;9.65;6.20;;;3.60;99.90;;;;;;5043850;28;20387;-74
2021/12/10 10:36:24;;;;;;;10.02;7.50;;;3.60;99.90;;;;;;5057466;28;20090;-74
2021/12/10 10:38:57;;;;;;;10.75;6.70;;;3.70;99.90;;;;;;5026816;28;20122;-73
2021/12/10 10:41:27;;;;;;;9.70;5.80;;;3.80;99.90;;;;;;5040004;28;20043;-74
2021/12/10 10:43:54;;;;;;;10.90;5.95;;;3.90;99.90;;;;;;5049309;28;20075;-73
2021/12/10 10:46:20;;;;;;;10.43;6.25;;;3.90;99.90;;;;;;5034695;28;20032;-73
2021/12/10 10:48:48;;;;;;;12.77;6.25;;;4.00;99.90;;;;;;5054245;28;20044;-73
2021/12/10 10:51:18;;;;;;;10.02;6.15;;;4.10;99.90;;;;;;5037643;28;20052;-73
2021/12/10 10:53:48;;;;;;;12.52;7.28;;;4.10;99.90;;;;;;5034014;28;20440;-73
2021/12/10 10:56:18;;;;;;;8.52;5.82;;;4.20;99.90;;;;;;5034382;28;20033;-74
2021/12/10 10:58:54;;;;;;;11.18;6.43;;;4.30;99.90;;;;;;5040105;28;20044;-73
2021/12/10 11:01:27;;;;;;;9.38;5.53;;;4.40;99.90;;;;;;5037393;28;20079;-74
2021/12/10 11:03:57;;;;;;;10.32;5.40;;;4.40;99.90;;;;;;5035325;28;20116;-74
2021/12/10 11:06:33;;;;;;;9.65;6.25;;;4.50;99.90;;;;;;5023433;28;20484;-74
2021/12/10 11:09:16;;;;;;;8.35;5.70;;;4.60;99.90;;;;;;5036917;28;20040;-73
2021/12/10 11:11:48;;;;;;;10.93;5.95;;;4.60;99.90;;;;;;5050258;28;20462;-74
2021/12/10 11:14:25;;;;;;;8.43;5.20;;;4.70;99.90;;;;;;5036744;28;20040;-73
2021/12/10 11:16:55;;;;;;;9.77;5.45;;;4.90;99.90;;;;;;5022950;28;20306;-74
2021/12/10 11:19:23;;;;;;;7.95;5.13;;;5.10;99.90;;;;;;5045330;28;20040;-74
2021/12/10 11:21:52;;;;;;;10.30;5.60;;;5.40;99.90;;;;;;5036511;28;20037;-75
2021/12/10 11:24:34;;;;;;;10.50;6.00;;;5.70;99.90;;;;;;5045987;28;20169;-75
2021/12/10 11:27:13;;;;;;;10.20;4.90;;;5.90;99.90;;;;;;5044235;28;20048;-76
2021/12/10 11:29:51;;;;;;;7.88;5.03;;;6.10;99.90;;;;;;5037312;28;20432;-75
2021/12/10 11:32:28;;;;;;;8.25;4.90;;;6.20;99.90;;;;;;5032096;28;20415;-74
2021/12/10 11:35:01;;;;;;;7.25;4.30;;;6.20;99.90;;;;;;5048109;28;20047;-74
2021/12/10 11:37:39;;;;;;;;;;;6.20;99.90;;;;;;5043482;28;20124;-74
2021/12/10 11:40:08;;;;;;;8.38;4.13;;;6.20;99.90;;;;;;5038435;28;19928;-74
2021/12/10 11:42:47;;;;;;;6.90;4.35;;;6.20;99.90;;;;;;5037330;28;20121;-74
2021/12/10 11:45:43;;;;;;;6.55;4.10;;;6.10;99.90;;;;;;5041884;28;20041;-74
2021/12/10 11:48:12;;;;;;;8.25;4.18;;;6.00;99.90;;;;;;5050902;28;20045;-74
2021/12/10 11:50:44;;;;;;;5.28;3.20;;;6.10;99.90;;;;;;5039171;28;20037;-74
2021/12/10 11:53:13;;;;;;;6.10;3.85;;;6.20;99.90;;;;;;5040976;28;20074;-74
2021/12/10 11:56:06;;;;;;;6.47;3.60;;;6.30;99.90;;;;;;5036636;28;20040;-74
2021/12/10 11:58:32;;;;;;;6.32;3.65;;;6.40;99.90;;;;;;5041907;28;20489;-74
2021/12/10 12:00:58;;;;;;;7.15;3.60;;;6.40;99.90;;;;;;5054117;28;20044;-74
2021/12/10 12:03:34;;;;;;;7.80;3.63;;;6.40;99.90;;;;;;5040189;28;20561;-73
2021/12/10 12:06:02;;;;;;;9.02;3.97;;;6.60;99.90;;;;;;5042926;28;20060;-73
2021/12/10 12:08:28;;;;;;;7.85;3.67;;;6.70;99.90;;;;;;5042486;28;20052;-73
2021/12/10 12:10:59;;;;;;;5.82;3.67;;;6.90;99.90;;;;;;5056318;28;20041;-73
2021/12/10 12:13:40;;;;;;;7.28;3.50;;;7.00;99.90;;;;;;5047814;28;20497;-73
2021/12/10 12:16:14;;;;;;;6.70;3.47;;;7.20;99.90;;;;;;5043374;28;20036;-73
2021/12/10 12:18:43;;;;;;;5.63;3.10;;;7.20;99.90;;;;;;5023492;28;20105;-73
2021/12/10 12:27:08;;;;;;;7.93;3.15;;;6.80;99.90;;;;;;5050371;28;20102;-73
2021/12/10 12:29:47;;;;;;;5.55;3.10;;;6.60;99.90;;;;;;5053501;28;20069;-73
2021/12/10 12:32:22;;;;;;;6.25;3.45;;;6.40;99.90;;;;;;5045652;28;20033;-73
2021/12/10 12:34:48;;;;;;;6.47;3.17;;;6.40;99.90;;;;;;5047136;28;20037;-74
2021/12/10 12:37:16;;;;;;;6.55;3.22;;;6.30;99.90;;;;;;5030480;28;20060;-74
2021/12/10 12:39:55;;;;;;;5.40;2.75;;;6.20;99.90;;;;;;5032789;28;20544;-74
2021/12/10 12:42:37;;;;;;;7.43;3.17;;;6.30;99.90;;;;;;5037261;28;20126;-74
2021/12/10 12:45:07;;;;;;;4.60;2.67;;;6.50;99.90;;;;;;5053477;28;20041;-74
2021/12/10 12:47:36;;;;;;;7.05;3.03;;;6.70;99.90;;;;;;5049107;28;20036;-74
2021/12/10 12:50:10;;;;;;;6.93;2.90;;;6.80;99.90;;;;;;5051167;28;20036;-74
2021/12/10 12:52:40;;;;;;;6.35;3.38;;;6.90;99.90;;;;;;5031742;28;20090;-74
2021/12/10 12:55:21;;;;;;;6.22;3.30;;;7.00;99.90;;;;;;5048504;28;20500;-74
2021/12/10 12:58:14;;;;;;;7.10;3.55;;;7.10;99.90;;;;;;5045344;28;20044;-74
2021/12/10 13:01:13;;;;;;;6.40;3.35;;;6.80;99.90;;;;;;5050809;28;20076;-74
2021/12/10 13:03:47;;;;;;;7.13;3.03;;;6.50;99.90;;;;;;5045489;28;20053;-74
2021/12/10 13:06:23;;;;;;;6.10;2.83;;;6.30;99.90;;;;;;5026248;28;20047;-74